Time;durP1;ratioP1;P1;durP2;ratioP2;P2;SDS_P1;SDS_P2;PMS_P1;PMS_P2;Temp;Humidity;BMP_temperature;BMP_pressure;BME280_temperature;BME280_humidity;BME280_pressure;Samples;Min_cycle;Max_cycle;Signal;HPM_P1;HPM_P2
2022/11/26 18:57:14;;;;;;;24.48;5.65;;;;;;;;;;7345796;19;20371;-80
2022/11/26 18:59:39;;;;;;;15.63;5.50;;;;;;;;;;7336287;19;20011;-81
2022/11/26 19:02:04;;;;;;;19.08;6.00;;;;;;;;;;7272640;19;20453;-81
2022/11/26 19:04:30;;;;;;;22.83;6.13;;;;;;;;;;7326766;19;20010;-79
2022/11/26 19:06:55;;;;;;;19.77;7.07;;;;;;;;;;7337499;19;20140;-80
2022/11/26 19:09:20;;;;;;;18.37;5.90;;;;;;;;;;7345853;19;20012;-78
2022/11/26 19:11:46;;;;;;;25.52;6.90;;;;;;;;;;7350584;19;20724;-81
2022/11/26 19:14:12;;;;;;;19.67;5.85;;;;;;;;;;7352696;19;20007;-79
2022/11/26 19:16:38;;;;;;;18.77;6.10;;;;;;;;;;7343658;19;20014;-80
2022/11/26 19:19:03;;;;;;;15.35;5.13;;;;;;;;;;7353763;19;20010;-78
2022/11/26 19:21:29;;;;;;;22.08;5.88;;;;;;;;;;7361694;19;20010;-79
2022/11/26 19:23:55;;;;;;;21.25;6.25;;;;;;;;;;7362011;19;20736;-81
2022/11/26 19:26:21;;;;;;;18.35;5.78;;;;;;;;;;7362434;19;20023;-79
2022/11/26 19:28:46;;;;;;;24.33;6.78;;;;;;;;;;7324686;19;20006;-79
2022/11/26 19:31:13;;;;;;;19.70;5.63;;;;;;;;;;7343905;19;20007;-80
2022/11/26 19:33:38;;;;;;;19.20;5.10;;;;;;;;;;7355643;19;21090;-81
2022/11/26 19:36:05;;;;;;;19.02;5.57;;;;;;;;;;7313577;19;20011;-79
2022/11/26 19:38:30;;;;;;;16.08;5.15;;;;;;;;;;7335977;19;20507;-79
2022/11/26 19:40:56;;;;;;;23.17;5.40;;;;;;;;;;7319505;19;20029;-80
2022/11/26 19:43:21;;;;;;;21.38;6.03;;;;;;;;;;7355608;19;20032;-79
2022/11/26 19:45:46;;;;;;;25.85;6.60;;;;;;;;;;7321251;19;20107;-79
2022/11/26 19:48:12;;;;;;;20.98;6.75;;;;;;;;;;7339371;19;20637;-80
2022/11/26 19:50:37;;;;;;;21.77;5.40;;;;;;;;;;7352959;19;20020;-80
2022/11/26 19:53:02;;;;;;;18.48;5.18;;;;;;;;;;7358418;19;23189;-80
2022/11/26 19:55:28;;;;;;;25.52;6.47;;;;;;;;;;7359692;19;20010;-79
2022/11/26 19:57:54;;;;;;;23.73;6.35;;;;;;;;;;7356559;19;20010;-81
2022/11/26 20:00:19;;;;;;;21.35;5.07;;;;;;;;;;7331823;19;20817;-80
2022/11/26 20:02:44;;;;;;;26.63;5.82;;;;;;;;;;7350532;19;20037;-79
2022/11/26 20:05:10;;;;;;;23.58;5.68;;;;;;;;;;7334931;19;20363;-80
2022/11/26 20:07:35;;;;;;;27.23;6.93;;;;;;;;;;7347456;19;20018;-79
2022/11/26 20:10:00;;;;;;;19.65;5.53;;;;;;;;;;7345718;19;20372;-80
2022/11/26 20:12:25;;;;;;;23.63;5.35;;;;;;;;;;7344363;19;20007;-80
2022/11/26 20:14:50;;;;;;;23.95;4.85;;;;;;;;;;7344091;19;20010;-81
2022/11/26 20:17:16;;;;;;;28.85;5.53;;;;;;;;;;7329003;19;20474;-80
2022/11/26 20:19:41;;;;;;;27.33;5.60;;;;;;;;;;7346365;19;20016;-81
2022/11/26 20:22:06;;;;;;;26.35;6.75;;;;;;;;;;7340263;19;20272;-80
2022/11/26 20:24:32;;;;;;;20.17;5.15;;;;;;;;;;7325701;19;20022;-81
2022/11/26 20:26:57;;;;;;;25.25;5.65;;;;;;;;;;7343879;19;20010;-79
2022/11/26 20:29:22;;;;;;;27.23;6.27;;;;;;;;;;7355782;19;20842;-80
2022/11/26 20:31:49;;;;;;;22.88;5.93;;;;;;;;;;7332320;19;20263;-79
2022/11/26 20:34:21;;;;;;;29.95;6.75;;;;;;;;;;7340340;19;20014;-82
2022/11/26 20:36:47;;;;;;;25.30;6.18;;;;;;;;;;7363242;19;20011;-79
2022/11/26 20:39:13;;;;;;;24.88;6.28;;;;;;;;;;7345392;19;20074;-79
2022/11/26 20:41:38;;;;;;;20.70;5.72;;;;;;;;;;7336380;19;20015;-79
2022/11/26 20:44:03;;;;;;;29.10;6.70;;;;;;;;;;7350746;19;20866;-81
2022/11/26 20:46:29;;;;;;;22.77;5.57;;;;;;;;;;7341892;19;20523;-80
2022/11/26 20:48:54;;;;;;;31.77;5.87;;;;;;;;;;7344281;19;20007;-81
2022/11/26 20:51:20;;;;;;;25.15;5.28;;;;;;;;;;7345564;19;20252;-80
2022/11/26 20:53:45;;;;;;;23.17;6.38;;;;;;;;;;7361062;19;20041;-80
2022/11/26 20:56:13;;;;;;;22.52;5.32;;;;;;;;;;7350068;19;20070;-79
2022/11/26 20:58:38;;;;;;;21.60;5.55;;;;;;;;;;7354147;19;20117;-80
2022/11/26 21:01:03;;;;;;;23.35;6.03;;;;;;;;;;7362888;19;20006;-81
2022/11/26 21:03:29;;;;;;;20.42;4.97;;;;;;;;;;7362580;19;20024;-82
2022/11/26 21:05:55;;;;;;;22.83;4.30;;;;;;;;;;7367947;19;20021;-79
2022/11/26 21:08:20;;;;;;;17.53;4.90;;;;;;;;;;7362615;19;20343;-79
2022/11/26 21:10:46;;;;;;;22.73;4.35;;;;;;;;;;7353479;19;20271;-79
2022/11/26 21:13:12;;;;;;;18.65;4.43;;;;;;;;;;7359432;19;20003;-80
2022/11/26 21:15:38;;;;;;;22.88;5.60;;;;;;;;;;7368195;19;20010;-80
2022/11/26 21:18:04;;;;;;;26.75;5.82;;;;;;;;;;7364740;19;20026;-79
2022/11/26 21:20:29;;;;;;;19.75;6.03;;;;;;;;;;7354688;19;20014;-80
2022/11/26 21:22:54;;;;;;;22.77;4.93;;;;;;;;;;7361224;19;20010;-79
2022/11/26 21:25:19;;;;;;;22.60;5.93;;;;;;;;;;7355374;19;20014;-81
2022/11/26 21:27:44;;;;;;;23.30;5.05;;;;;;;;;;7359658;19;20243;-78
2022/11/26 21:30:10;;;;;;;22.77;4.90;;;;;;;;;;7362170;19;20982;-79
2022/11/26 21:32:35;;;;;;;26.02;5.80;;;;;;;;;;7352017;19;20013;-81
2022/11/26 21:35:00;;;;;;;22.70;5.43;;;;;;;;;;7355739;19;20010;-82
2022/11/26 21:37:26;;;;;;;20.98;5.50;;;;;;;;;;7364240;19;19999;-79
2022/11/26 21:39:51;;;;;;;20.45;4.75;;;;;;;;;;7348093;19;20023;-81
2022/11/26 21:42:16;;;;;;;27.10;5.78;;;;;;;;;;7359849;19;20006;-80
2022/11/26 21:44:42;;;;;;;25.27;5.95;;;;;;;;;;7369094;19;20474;-81
2022/11/26 21:47:07;;;;;;;32.05;5.50;;;;;;;;;;7361510;19;20006;-80
2022/11/26 21:49:32;;;;;;;19.67;5.50;;;;;;;;;;7362161;19;20015;-80
2022/11/26 21:51:57;;;;;;;21.40;5.32;;;;;;;;;;7366182;19;20255;-81
2022/11/26 21:54:25;;;;;;;19.30;5.68;;;;;;;;;;7369905;19;20089;-81
2022/11/26 21:56:50;;;;;;;22.52;5.85;;;;;;;;;;7368839;19;20060;-79
2022/11/26 21:59:15;;;;;;;26.27;5.30;;;;;;;;;;7360185;19;21360;-80
2022/11/26 22:01:41;;;;;;;19.20;5.07;;;;;;;;;;7326278;19;20007;-79
2022/11/26 22:04:10;;;;;;;25.73;6.47;;;;;;;;;;7351799;19;20412;-79
2022/11/26 22:06:36;;;;;;;24.70;5.57;;;;;;;;;;7354042;19;20067;-79
2022/11/26 22:09:01;;;;;;;19.13;5.47;;;;;;;;;;7322525;19;20861;-80
2022/11/26 22:11:28;;;;;;;18.70;6.20;;;;;;;;;;7359355;19;20007;-79
2022/11/26 22:13:53;;;;;;;30.88;7.30;;;;;;;;;;7358147;19;20039;-80
2022/11/26 22:16:19;;;;;;;22.33;6.03;;;;;;;;;;7351642;19;20014;-81
2022/11/26 22:18:45;;;;;;;18.30;5.88;;;;;;;;;;7355339;19;20007;-81
2022/11/26 22:21:12;;;;;;;19.63;6.18;;;;;;;;;;7354279;19;20003;-79
2022/11/26 22:23:37;;;;;;;26.05;6.30;;;;;;;;;;7359720;19;20390;-79
2022/11/26 22:26:02;;;;;;;23.85;6.68;;;;;;;;;;7352947;19;20074;-79
2022/11/26 22:28:27;;;;;;;25.05;6.88;;;;;;;;;;7361035;19;20010;-79
2022/11/26 22:30:53;;;;;;;22.17;7.32;;;;;;;;;;7359819;19;20023;-80
2022/11/26 22:33:18;;;;;;;23.17;6.35;;;;;;;;;;7342146;19;20959;-80
2022/11/26 22:35:43;;;;;;;25.20;6.20;;;;;;;;;;7360176;19;20033;-81
2022/11/26 22:38:09;;;;;;;26.20;6.45;;;;;;;;;;7352001;19;20006;-80
2022/11/26 22:40:34;;;;;;;22.42;7.45;;;;;;;;;;7342090;19;20671;-79
2022/11/26 22:42:59;;;;;;;29.10;8.70;;;;;;;;;;7362481;19;20042;-80
2022/11/26 22:45:25;;;;;;;31.67;7.00;;;;;;;;;;7353706;19;20010;-81
2022/11/26 22:47:50;;;;;;;22.55;7.10;;;;;;;;;;7352987;19;20006;-79
2022/11/26 22:50:16;;;;;;;25.92;7.78;;;;;;;;;;7360875;19;21654;-79
2022/11/26 22:52:42;;;;;;;27.20;7.63;;;;;;;;;;7362411;19;20010;-79
2022/11/26 22:55:07;;;;;;;30.17;8.02;;;;;;;;;;7358245;19;20552;-79
2022/11/26 22:57:33;;;;;;;30.45;9.07;;;;;;;;;;7355382;19;20017;-79
2022/11/26 22:59:58;;;;;;;31.77;10.13;;;;;;;;;;7326011;19;20002;-80
2022/11/26 23:02:23;;;;;;;36.17;10.23;;;;;;;;;;7343891;19;21005;-80
2022/11/26 23:04:50;;;;;;;36.08;11.88;;;;;;;;;;7350573;19;20006;-79
2022/11/26 23:07:15;;;;;;;36.97;13.27;;;;;;;;;;7361929;19;20017;-77
2022/11/26 23:09:41;;;;;;;27.98;13.18;;;;;;;;;;7351477;19;20007;-79
2022/11/26 23:12:06;;;;;;;29.95;13.43;;;;;;;;;;7360889;19;20002;-79
2022/11/26 23:14:31;;;;;;;41.78;13.95;;;;;;;;;;7354379;19;20003;-78
2022/11/26 23:16:56;;;;;;;30.35;13.23;;;;;;;;;;7343141;19;20704;-80
2022/11/26 23:19:21;;;;;;;43.00;16.05;;;;;;;;;;7357206;19;20021;-79
2022/11/26 23:21:48;;;;;;;38.35;14.65;;;;;;;;;;7362667;19;20002;-79
2022/11/26 23:24:14;;;;;;;30.85;13.98;;;;;;;;;;7353816;19;20011;-79
2022/11/26 23:26:39;;;;;;;38.38;17.23;;;;;;;;;;7362913;19;20074;-78
2022/11/26 23:29:05;;;;;;;33.63;18.00;;;;;;;;;;7357349;19;20020;-80
2022/11/26 23:31:35;;;;;;;37.50;19.00;;;;;;;;;;7353764;19;20006;-78
2022/11/26 23:34:00;;;;;;;44.53;20.05;;;;;;;;;;7299442;19;22998;-78
2022/11/26 23:36:26;;;;;;;41.80;21.45;;;;;;;;;;7351539;19;20045;-80
2022/11/26 23:38:52;;;;;;;48.60;19.63;;;;;;;;;;7356824;19;20006;-78
2022/11/26 23:41:17;;;;;;;38.08;19.92;;;;;;;;;;7328992;19;20011;-78
2022/11/26 23:43:42;;;;;;;41.28;20.42;;;;;;;;;;7363641;19;20909;-79
2022/11/26 23:46:15;;;;;;;38.83;19.98;;;;;;;;;;7352398;19;20647;-79
2022/11/26 23:48:41;;;;;;;46.88;19.83;;;;;;;;;;7363511;19;20039;-81
2022/11/26 23:51:07;;;;;;;27.65;14.98;;;;;;;;;;7350962;19;20011;-78
2022/11/26 23:53:33;;;;;;;29.80;15.10;;;;;;;;;;7356978;19;20079;-79
2022/11/26 23:56:03;;;;;;;37.10;14.77;;;;;;;;;;7349598;19;20589;-81
2022/11/26 23:58:28;;;;;;;34.88;14.45;;;;;;;;;;7359305;19;20006;-79
